createdAt,value
2019-05-14T00:00:32.368Z,90.23
2019-05-14T00:01:32.383Z,90.80
2019-05-14T00:02:32.399Z,90.38
2019-05-14T00:03:32.548Z,90.47
2019-05-14T00:04:32.429Z,90.09
2019-05-14T00:05:32.445Z,90.57
2019-05-14T00:06:32.457Z,90.23
2019-05-14T00:07:32.472Z,90.09
2019-05-14T00:08:32.484Z,90.95
2019-05-14T00:09:32.502Z,90.76
2019-05-14T00:10:32.515Z,90.33
2019-05-14T00:11:32.532Z,90.52
2019-05-14T00:12:32.545Z,90.71
2019-05-14T00:13:32.556Z,90.14
2019-05-14T00:14:39.536Z,90.99
2019-05-14T00:15:32.589Z,90.71
2019-05-14T00:16:32.603Z,90.61
2019-05-14T00:17:32.623Z,90.80
2019-05-14T00:18:32.630Z,90.76
2019-05-14T00:19:32.647Z,91.19
2019-05-14T00:20:32.663Z,90.71
2019-05-14T00:21:32.680Z,91.19
2019-05-14T00:22:32.690Z,90.80
2019-05-14T00:23:32.702Z,90.76
2019-05-14T00:24:32.722Z,90.80
2019-05-14T00:25:32.736Z,90.99
2019-05-14T00:26:32.746Z,90.14
2019-05-14T00:27:32.763Z,90.38
2019-05-14T00:28:32.776Z,90.85
2019-05-14T00:29:32.982Z,91.14
2019-05-14T00:30:32.809Z,91.66
2019-05-14T00:31:32.824Z,91.47
2019-05-14T00:32:32.838Z,91.94
2019-05-14T00:33:32.853Z,91.75
2019-05-14T00:34:32.869Z,92.52
2019-05-14T00:35:35.703Z,92.42
2019-05-14T00:36:32.892Z,92.71
2019-05-14T00:37:32.911Z,92.76
2019-05-14T00:38:32.932Z,92.52
2019-05-14T00:39:32.940Z,92.23
2019-05-14T00:40:32.955Z,92.57
2019-05-14T00:41:32.967Z,92.90
2019-05-14T00:42:32.981Z,93.23
2019-05-14T00:43:32.996Z,92.99
2019-05-14T00:44:33.007Z,92.52
2019-05-14T00:45:33.046Z,92.14
2019-05-14T00:46:33.042Z,93.18
2019-05-14T00:47:33.058Z,93.18
2019-05-14T00:48:33.070Z,92.71
2019-05-14T00:49:33.262Z,92.80
2019-05-14T00:50:33.096Z,92.90
2019-05-14T00:51:33.109Z,92.61
2019-05-14T00:52:33.122Z,92.80
2019-05-14T00:53:33.136Z,92.80
2019-05-14T00:54:33.155Z,92.71
2019-05-14T00:55:33.169Z,92.33
2019-05-14T00:56:33.208Z,92.71
2019-05-14T00:57:33.198Z,92.90
2019-05-14T00:58:33.214Z,92.71
2019-05-14T00:59:33.225Z,92.42
2019-05-14T01:00:33.241Z,92.90
2019-05-14T01:01:33.257Z,92.61
2019-05-14T01:02:33.271Z,92.90
2019-05-14T01:03:33.281Z,92.42
2019-05-14T01:04:33.295Z,92.99
2019-05-14T01:05:33.312Z,92.71
2019-05-14T01:06:33.326Z,92.23
2019-05-14T01:07:33.345Z,92.76
2019-05-14T01:08:33.354Z,92.57
2019-05-14T01:09:33.368Z,92.47
2019-05-14T01:10:33.379Z,92.85
2019-05-14T01:11:33.396Z,92.57
2019-05-14T01:12:33.408Z,92.85
2019-05-14T01:13:33.423Z,93.32
2019-05-14T01:14:33.438Z,92.94
2019-05-14T01:15:33.454Z,93.04
2019-05-14T01:16:33.469Z,92.85
2019-05-14T01:17:33.488Z,92.85
2019-05-14T01:18:33.500Z,92.85
2019-05-14T01:19:33.511Z,93.13
2019-05-14T01:20:33.526Z,92.66
2019-05-14T01:21:33.539Z,92.85
2019-05-14T01:22:33.560Z,93.13
2019-05-14T01:23:33.569Z,92.94
2019-05-14T01:24:33.582Z,92.85
2019-05-14T01:25:33.599Z,93.13
2019-05-14T01:26:33.610Z,92.47
2019-05-14T01:27:33.636Z,92.94
2019-05-14T01:28:33.637Z,92.85
2019-05-14T01:29:33.659Z,93.51
2019-05-14T01:30:33.669Z,92.94
2019-05-14T01:31:33.686Z,92.94
2019-05-14T01:32:33.693Z,92.94
2019-05-14T01:33:33.709Z,92.52
2019-05-14T01:34:33.725Z,92.61
2019-05-14T01:35:33.737Z,92.85
2019-05-14T01:36:33.757Z,93.56
2019-05-14T01:37:33.798Z,92.90
2019-05-14T01:38:33.913Z,92.90
2019-05-14T01:39:33.799Z,93.08
2019-05-14T01:40:33.813Z,93.08
2019-05-14T01:41:33.826Z,92.90
2019-05-14T01:42:33.838Z,92.90
2019-05-14T01:43:33.850Z,92.99
2019-05-14T01:44:33.868Z,92.52
2019-05-14T01:45:33.879Z,92.99
2019-05-14T01:46:33.894Z,92.71
2019-05-14T01:47:33.907Z,92.71
2019-05-14T01:48:33.923Z,92.80
2019-05-14T01:49:33.940Z,92.61
2019-05-14T01:50:33.952Z,92.52
2019-05-14T01:51:33.969Z,92.52
2019-05-14T01:52:33.974Z,92.99
2019-05-14T01:53:34.008Z,92.61
2019-05-14T01:54:34.010Z,92.71
2019-05-14T01:55:34.022Z,92.80
2019-05-14T01:56:34.032Z,92.99
2019-05-14T01:57:34.049Z,92.52
2019-05-14T01:58:34.062Z,92.80
2019-05-14T01:59:34.072Z,92.71
2019-05-14T02:00:34.088Z,92.42
2019-05-14T02:01:34.106Z,93.37
2019-05-14T02:02:34.115Z,93.08
2019-05-14T02:03:34.132Z,92.52
2019-05-14T02:04:34.143Z,92.90
2019-05-14T02:05:34.160Z,91.85
2019-05-14T02:06:34.169Z,92.71
2019-05-14T02:07:34.185Z,93.18
2019-05-14T02:08:34.200Z,92.90
2019-05-14T02:09:34.211Z,93.08
2019-05-14T02:10:34.228Z,92.61
2019-05-14T02:11:34.241Z,92.33
2019-05-14T02:12:34.257Z,92.52
2019-05-14T02:13:34.423Z,92.52
2019-05-14T02:14:34.282Z,92.90
2019-05-14T02:15:39.564Z,92.80
2019-05-14T02:16:34.310Z,92.14
2019-05-14T02:17:34.324Z,92.80
2019-05-14T02:18:34.344Z,92.80
2019-05-14T02:19:34.353Z,92.42
2019-05-14T02:20:34.368Z,92.19
2019-05-14T02:21:34.384Z,92.90
2019-05-14T02:22:34.392Z,92.33
2019-05-14T02:23:34.407Z,92.19
2019-05-14T02:24:34.421Z,92.23
2019-05-14T02:25:34.438Z,92.04
2019-05-14T02:26:34.450Z,92.42
2019-05-14T02:27:34.969Z,92.14
2019-05-14T02:28:34.477Z,92.33
2019-05-14T02:29:34.490Z,92.71
2019-05-14T02:30:48.255Z,92.71
2019-05-14T02:31:34.517Z,92.71
2019-05-14T02:32:34.531Z,92.52
2019-05-14T02:33:34.548Z,93.18
2019-05-14T02:34:34.562Z,93.08
2019-05-14T02:35:34.577Z,92.71
2019-05-14T02:36:34.593Z,92.80
2019-05-14T02:37:34.603Z,92.71
2019-05-14T02:38:34.619Z,92.80
2019-05-14T02:39:34.631Z,92.80
2019-05-14T02:40:34.652Z,92.71
2019-05-14T02:41:34.662Z,92.90
2019-05-14T02:42:34.677Z,92.52
2019-05-14T02:43:34.689Z,92.71
2019-05-14T02:44:34.704Z,92.14
2019-05-14T02:45:34.721Z,92.52
2019-05-14T02:46:34.737Z,93.23
2019-05-14T02:47:34.747Z,92.33
2019-05-14T02:48:34.797Z,92.33
2019-05-14T02:49:34.777Z,92.71
2019-05-14T02:50:34.793Z,92.52
2019-05-14T02:51:34.807Z,92.52
2019-05-14T02:52:34.825Z,92.71
2019-05-14T02:53:34.838Z,92.71
2019-05-14T02:54:34.855Z,92.80
2019-05-14T02:55:34.864Z,92.80
2019-05-14T02:56:34.881Z,92.71
2019-05-14T02:57:34.898Z,92.42
2019-05-14T02:58:34.915Z,91.66
2019-05-14T02:59:34.924Z,92.23
2019-05-14T03:00:34.937Z,92.80
2019-05-14T03:01:34.956Z,92.76
2019-05-14T03:02:34.970Z,92.00
2019-05-14T03:03:34.984Z,92.57
2019-05-14T03:04:34.999Z,91.81
2019-05-14T03:05:35.012Z,92.47
2019-05-14T03:06:35.038Z,92.85
2019-05-14T03:07:35.044Z,92.57
2019-05-14T03:08:35.056Z,92.42
2019-05-14T03:09:35.072Z,92.61
2019-05-14T03:10:35.088Z,92.71
2019-05-14T03:11:35.100Z,92.66
2019-05-14T03:12:35.120Z,92.09
2019-05-14T03:13:35.131Z,92.19
2019-05-14T03:14:35.143Z,91.81
2019-05-14T03:15:35.156Z,92.19
2019-05-14T03:16:35.964Z,92.00
2019-05-14T03:17:35.190Z,92.19
2019-05-14T03:18:35.358Z,92.19
2019-05-14T03:19:35.265Z,92.94
2019-05-14T03:20:35.229Z,92.66
2019-05-14T03:21:35.245Z,92.94
2019-05-14T03:22:52.594Z,92.28
2019-05-14T03:23:35.276Z,92.76
2019-05-14T03:24:35.290Z,92.76
2019-05-14T03:25:35.302Z,92.76
2019-05-14T03:26:35.321Z,92.19
2019-05-14T03:27:35.333Z,92.28
2019-05-14T03:28:35.350Z,92.09
2019-05-14T03:29:35.361Z,92.47
2019-05-14T03:30:35.383Z,92.19
2019-05-14T03:31:35.405Z,92.57
2019-05-14T03:32:35.407Z,91.81
2019-05-14T03:33:35.431Z,92.57
2019-05-14T03:34:41.862Z,92.19
2019-05-14T03:35:44.609Z,92.38
2019-05-14T03:36:35.841Z,91.81
2019-05-14T03:37:35.484Z,93.04
2019-05-14T03:38:35.496Z,92.47
2019-05-14T03:39:35.509Z,92.19
2019-05-14T03:40:35.525Z,92.09
2019-05-14T03:41:35.545Z,92.38
2019-05-14T03:42:35.552Z,92.19
2019-05-14T03:43:38.897Z,92.28
2019-05-14T03:44:35.583Z,92.66
2019-05-14T03:45:38.895Z,92.57
2019-05-14T03:46:45.700Z,91.62
2019-05-14T03:47:39.123Z,92.19
2019-05-14T03:48:35.643Z,92.47
2019-05-14T03:49:35.661Z,92.09
2019-05-14T03:50:38.737Z,91.62
2019-05-14T03:51:35.688Z,92.38
2019-05-14T03:52:35.700Z,92.28
2019-05-14T03:53:52.297Z,92.28
2019-05-14T03:54:35.728Z,91.81
2019-05-14T03:55:35.769Z,91.90
2019-05-14T03:56:39.212Z,92.09
2019-05-14T03:57:35.850Z,92.28
2019-05-14T03:58:39.132Z,92.28
2019-05-14T03:59:35.983Z,91.81
2019-05-14T04:00:38.869Z,91.90
2019-05-14T04:01:35.859Z,91.81
2019-05-14T04:02:38.914Z,92.00
2019-05-14T04:03:35.892Z,91.90
2019-05-14T04:04:39.080Z,92.00
2019-05-14T04:05:36.001Z,92.66
2019-05-14T04:06:35.912Z,92.09
2019-05-14T04:07:39.111Z,92.28
2019-05-14T04:08:38.892Z,92.19
2019-05-14T04:09:35.951Z,91.52
2019-05-14T04:10:39.108Z,92.66
2019-05-14T04:11:35.982Z,92.66
2019-05-14T04:12:36.001Z,92.47
2019-05-14T04:13:36.074Z,92.19
2019-05-14T04:14:36.080Z,91.85
2019-05-14T04:15:39.045Z,92.52
2019-05-14T04:16:36.060Z,92.80
2019-05-14T04:17:40.964Z,92.52
2019-05-14T04:18:39.771Z,92.99
2019-05-14T04:19:39.182Z,92.90
2019-05-14T04:20:39.123Z,92.71
2019-05-14T04:21:36.131Z,92.52
2019-05-14T04:22:39.093Z,92.99
2019-05-14T04:23:39.317Z,92.14
2019-05-14T04:24:38.097Z,92.90
2019-05-14T04:25:38.990Z,92.80
2019-05-14T04:26:53.479Z,92.99
2019-05-14T04:27:36.221Z,92.52
2019-05-14T04:28:39.237Z,92.99
2019-05-14T04:29:39.430Z,92.99
2019-05-14T04:30:39.710Z,92.52
2019-05-14T04:31:39.053Z,92.80
2019-05-14T04:32:39.286Z,92.42
2019-05-14T04:33:38.937Z,92.90
2019-05-14T04:34:39.476Z,92.94
2019-05-14T04:35:39.882Z,92.23
2019-05-14T04:36:39.129Z,92.80
2019-05-14T04:37:39.644Z,92.90
2019-05-14T04:38:36.397Z,92.23
2019-05-14T04:39:39.267Z,92.23
2019-05-14T04:40:36.427Z,92.52
2019-05-14T04:41:39.373Z,92.61
2019-05-14T04:42:39.868Z,92.04
2019-05-14T04:43:39.604Z,92.04
2019-05-14T04:44:40.025Z,92.71
2019-05-14T04:45:39.476Z,92.61
2019-05-14T04:46:39.380Z,91.66
2019-05-14T04:47:40.964Z,91.47
2019-05-14T04:48:42.311Z,92.90
2019-05-14T04:49:39.548Z,92.33
2019-05-14T04:50:40.251Z,92.23
2019-05-14T04:51:39.664Z,93.08
2019-05-14T04:52:39.941Z,92.99
2019-05-14T04:53:39.314Z,93.13
2019-05-14T04:54:39.371Z,93.13
2019-05-14T04:55:39.938Z,93.27
2019-05-14T04:56:39.674Z,93.37
2019-05-14T04:57:39.192Z,93.51
2019-05-14T04:58:40.480Z,93.56
2019-05-14T04:59:39.732Z,92.46
2019-05-14T05:00:39.191Z,92.41
2019-05-14T05:01:39.914Z,90.66
2019-05-14T05:02:39.793Z,89.70
2019-05-14T05:03:39.864Z,88.99
2019-05-14T05:04:40.894Z,87.79
2019-05-14T05:05:39.377Z,86.08
2019-05-14T05:06:39.719Z,85.22
2019-05-14T05:07:39.415Z,85.03
2019-05-14T05:08:39.510Z,84.60
2019-05-14T05:09:39.858Z,83.21
2019-05-14T05:10:39.669Z,82.35
2019-05-14T05:11:39.374Z,81.59
2019-05-14T05:12:38.728Z,80.83
2019-05-14T05:13:39.689Z,81.15
2019-05-14T05:14:38.917Z,80.96
2019-05-14T05:15:39.401Z,80.77
2019-05-14T05:16:39.180Z,79.67
2019-05-14T05:17:46.628Z,78.91
2019-05-14T05:18:39.742Z,78.14
2019-05-14T05:19:39.815Z,78.05
2019-05-14T05:20:39.370Z,77.13
2019-05-14T05:21:38.736Z,77.23
2019-05-14T05:22:39.406Z,78.09
2019-05-14T05:23:38.691Z,77.89
2019-05-14T05:24:38.072Z,77.80
2019-05-14T05:25:38.454Z,78.09
2019-05-14T05:26:39.233Z,76.94
2019-05-14T05:27:38.230Z,77.23
2019-05-14T05:28:39.129Z,77.23
2019-05-14T05:29:39.265Z,77.26
2019-05-14T05:30:38.564Z,75.83
2019-05-14T05:31:38.154Z,75.98
2019-05-14T05:32:38.851Z,76.03
2019-05-14T05:33:38.369Z,75.96
2019-05-14T05:34:38.875Z,74.73
2019-05-14T05:35:40.279Z,73.99
2019-05-14T05:36:38.056Z,73.33
2019-05-14T05:37:38.486Z,72.88
2019-05-14T05:38:39.434Z,72.12
2019-05-14T05:39:38.553Z,71.20
2019-05-14T05:40:39.146Z,70.43
2019-05-14T05:41:38.463Z,69.32
2019-05-14T05:42:38.556Z,68.55
2019-05-14T05:43:39.333Z,68.07
2019-05-14T05:44:39.404Z,67.79
2019-05-14T05:45:38.152Z,67.72
2019-05-14T05:46:38.800Z,66.42
2019-05-14T05:47:39.107Z,65.65
2019-05-14T05:48:38.915Z,66.55
2019-05-14T05:49:38.195Z,66.83
2019-05-14T05:50:38.857Z,66.74
2019-05-14T05:51:39.240Z,65.78
2019-05-14T05:52:38.845Z,66.45
2019-05-14T05:53:39.319Z,65.88
2019-05-14T05:54:38.379Z,65.78
2019-05-14T05:55:39.478Z,66.10
2019-05-14T05:56:38.742Z,66.00
2019-05-14T05:57:39.177Z,65.08
2019-05-14T05:58:39.774Z,63.92
2019-05-14T05:59:39.372Z,64.76
2019-05-14T06:00:39.843Z,65.84
2019-05-14T06:01:45.763Z,64.76
2019-05-14T06:02:39.864Z,64.95
2019-05-14T06:03:39.320Z,64.69
2019-05-14T06:04:39.200Z,65.91
2019-05-14T06:05:38.856Z,66.35
2019-05-14T06:06:39.033Z,66.06
2019-05-14T06:07:39.468Z,66.74
2019-05-14T06:08:38.793Z,66.96
2019-05-14T06:09:38.407Z,67.02
2019-05-14T06:10:39.997Z,66.80
2019-05-14T06:11:38.344Z,64.34
2019-05-14T06:12:38.766Z,64.40
2019-05-14T06:13:39.046Z,63.96
2019-05-14T06:14:38.513Z,64.12
2019-05-14T06:15:45.704Z,63.86
2019-05-14T06:16:38.577Z,63.79
2019-05-14T06:17:39.195Z,65.20
2019-05-14T06:18:39.349Z,65.94
2019-05-14T06:19:38.486Z,64.89
2019-05-14T06:20:38.839Z,63.96
2019-05-14T06:21:39.781Z,63.48
2019-05-14T06:22:38.688Z,63.38
2019-05-14T06:23:38.838Z,63.99
2019-05-14T06:24:39.101Z,65.43
2019-05-14T06:25:40.080Z,64.89
2019-05-14T06:26:38.562Z,63.54
2019-05-14T06:27:38.529Z,64.09
2019-05-14T06:28:40.783Z,65.05
2019-05-14T06:29:38.624Z,65.14
2019-05-14T06:30:39.504Z,65.43
2019-05-14T06:31:38.895Z,65.33
2019-05-14T06:32:38.967Z,65.52
2019-05-14T06:33:39.331Z,66.22
2019-05-14T06:34:38.680Z,67.44
2019-05-14T06:35:39.575Z,67.91
2019-05-14T06:36:39.541Z,68.68
2019-05-14T06:37:38.774Z,69.45
2019-05-14T06:38:39.121Z,68.18
2019-05-14T06:39:39.215Z,67.32
2019-05-14T06:40:39.569Z,65.33
2019-05-14T06:41:42.595Z,63.67
2019-05-14T06:42:39.569Z,63.51
2019-05-14T06:43:39.382Z,65.62
2019-05-14T06:44:38.893Z,65.43
2019-05-14T06:45:39.268Z,65.81
2019-05-14T06:46:39.218Z,66.26
2019-05-14T06:47:38.959Z,65.49
2019-05-14T06:48:39.659Z,65.14
2019-05-14T06:49:39.005Z,64.66
2019-05-14T06:50:39.372Z,61.59
2019-05-14T06:51:39.476Z,62.48
2019-05-14T06:52:39.075Z,62.48
2019-05-14T06:53:39.470Z,63.45
2019-05-14T06:54:39.109Z,63.38
2019-05-14T06:55:39.419Z,62.74
2019-05-14T06:56:39.149Z,62.74
2019-05-14T06:57:39.558Z,62.84
2019-05-14T06:58:39.226Z,63.28
2019-05-14T06:59:39.219Z,61.14
2019-05-14T07:00:39.616Z,61.49
2019-05-14T07:01:39.253Z,61.72
2019-05-14T07:02:43.673Z,63.48
2019-05-14T07:03:39.298Z,60.46
2019-05-14T07:04:39.634Z,59.44
2019-05-14T07:05:39.340Z,59.25
2019-05-14T07:06:39.365Z,60.08
2019-05-14T07:07:40.352Z,59.44
2019-05-14T07:08:39.517Z,57.80
2019-05-14T07:09:39.432Z,57.71
2019-05-14T07:10:39.642Z,59.09
2019-05-14T07:11:39.486Z,59.66
2019-05-14T07:12:39.497Z,59.31
2019-05-14T07:13:39.519Z,58.25
2019-05-14T07:14:39.546Z,58.09
2019-05-14T07:15:39.559Z,57.90
2019-05-14T07:16:39.576Z,56.77
2019-05-14T07:17:39.606Z,55.23
2019-05-14T07:18:52.990Z,56.84
2019-05-14T07:19:39.644Z,57.75
2019-05-14T07:20:39.663Z,57.90
2019-05-14T07:21:39.692Z,58.77
2019-05-14T07:22:39.722Z,58.61
2019-05-14T07:23:39.728Z,57.70
2019-05-14T07:24:40.668Z,57.33
2019-05-14T07:25:39.893Z,57.40
2019-05-14T07:26:39.794Z,58.00
2019-05-14T07:27:39.814Z,59.12
2019-05-14T07:28:42.525Z,59.77
2019-05-14T07:29:39.857Z,59.09
2019-05-14T07:30:39.883Z,59.86
2019-05-14T07:31:39.905Z,60.15
2019-05-14T07:32:39.931Z,59.96
2019-05-14T07:33:39.946Z,58.55
2019-05-14T07:34:39.964Z,58.91
2019-05-14T07:35:39.985Z,60.28
2019-05-14T07:36:40.005Z,59.25
2019-05-14T07:37:40.040Z,59.09
2019-05-14T07:38:40.050Z,58.47
2019-05-14T07:39:40.068Z,57.39
2019-05-14T07:40:40.095Z,56.71
2019-05-14T07:41:40.107Z,56.84
2019-05-14T07:42:40.128Z,56.52
2019-05-14T07:43:40.148Z,56.21
2019-05-14T07:44:40.170Z,56.78
2019-05-14T07:45:40.198Z,57.52
2019-05-14T07:46:40.212Z,58.39
2019-05-14T07:47:40.235Z,58.45
2019-05-14T07:48:40.268Z,58.87
2019-05-14T07:49:40.278Z,58.07
2019-05-14T07:50:40.297Z,58.14
2019-05-14T07:51:40.322Z,57.68
2019-05-14T07:52:45.353Z,56.53
2019-05-14T07:53:42.547Z,56.66
2019-05-14T07:54:40.387Z,56.68
2019-05-14T07:55:40.403Z,56.82
2019-05-14T07:56:40.436Z,57.11
2019-05-14T07:57:40.454Z,57.04
2019-05-14T07:58:40.471Z,56.46
2019-05-14T07:59:40.488Z,55.96
2019-05-14T08:00:40.533Z,56.41
2019-05-14T08:01:40.542Z,57.63
2019-05-14T08:02:40.555Z,58.39
2019-05-14T08:03:40.576Z,58.72
2019-05-14T08:04:40.593Z,60.28
2019-05-14T08:05:40.617Z,59.06
2019-05-14T08:06:40.643Z,57.79
2019-05-14T08:07:40.654Z,57.34
2019-05-14T08:08:40.677Z,57.50
2019-05-14T08:09:40.706Z,57.43
2019-05-14T08:10:40.716Z,57.43
2019-05-14T08:11:40.740Z,57.28
2019-05-14T08:12:40.757Z,56.89
2019-05-14T08:13:42.630Z,58.65
2019-05-14T08:14:54.866Z,60.16
2019-05-14T08:15:40.818Z,61.11
2019-05-14T08:16:40.842Z,60.00
2019-05-14T08:17:40.866Z,60.06
2019-05-14T08:18:40.883Z,60.03
2019-05-14T08:19:40.937Z,60.73
2019-05-14T08:20:40.913Z,60.73
2019-05-14T08:21:40.934Z,62.49
2019-05-14T08:22:40.955Z,61.31
2019-05-14T08:23:40.973Z,62.55
2019-05-14T08:24:40.991Z,62.39
2019-05-14T08:25:41.010Z,59.71
2019-05-14T08:26:42.985Z,59.04
2019-05-14T08:27:41.052Z,60.51
2019-05-14T08:28:41.069Z,61.28
2019-05-14T08:29:41.087Z,62.26
2019-05-14T08:30:41.104Z,61.05
2019-05-14T08:31:41.121Z,62.20
2019-05-14T08:32:41.141Z,59.30
2019-05-14T08:33:41.158Z,59.65
2019-05-14T08:34:41.177Z,59.58
2019-05-14T08:35:41.198Z,59.97
2019-05-14T08:36:41.214Z,59.11
2019-05-14T08:37:41.236Z,58.72
2019-05-14T08:38:45.399Z,57.79
2019-05-14T08:39:41.311Z,57.60
2019-05-14T08:40:41.294Z,57.12
2019-05-14T08:41:41.308Z,56.93
2019-05-14T08:42:41.323Z,57.73
2019-05-14T08:43:41.351Z,58.50
2019-05-14T08:44:41.359Z,58.47
2019-05-14T08:45:41.378Z,59.08
2019-05-14T08:46:44.702Z,58.05
2019-05-14T08:47:41.414Z,57.95
2019-05-14T08:48:41.432Z,58.62
2019-05-14T08:49:46.221Z,57.86
2019-05-14T08:50:41.467Z,57.48
2019-05-14T08:51:41.486Z,57.83
2019-05-14T08:52:41.503Z,58.22
2019-05-14T08:53:41.522Z,58.12
2019-05-14T08:54:41.539Z,58.05
2019-05-14T08:55:41.557Z,56.90
2019-05-14T08:56:41.579Z,57.38
2019-05-14T08:57:41.670Z,58.02
2019-05-14T08:58:41.615Z,57.06
2019-05-14T08:59:41.657Z,57.35
2019-05-14T09:00:41.645Z,56.52
2019-05-14T09:01:57.248Z,57.12
2019-05-14T09:02:41.681Z,56.93
2019-05-14T09:03:41.722Z,56.07
2019-05-14T09:04:43.290Z,56.45
2019-05-14T09:05:41.740Z,56.16
2019-05-14T09:06:41.756Z,56.45
2019-05-14T09:07:41.779Z,56.23
2019-05-14T09:08:41.803Z,56.39
2019-05-14T09:09:41.869Z,58.79
2019-05-14T09:10:41.854Z,59.39
2019-05-14T09:11:45.340Z,59.77
2019-05-14T09:12:42.046Z,58.44
2019-05-14T09:13:41.897Z,59.05
2019-05-14T09:14:41.912Z,59.33
2019-05-14T09:15:41.934Z,59.59
2019-05-14T09:16:46.963Z,60.06
2019-05-14T09:17:41.956Z,59.88
2019-05-14T09:18:41.973Z,59.40
2019-05-14T09:19:57.732Z,61.02
2019-05-14T09:20:42.014Z,62.24
2019-05-14T09:21:42.035Z,61.28
2019-05-14T09:22:42.069Z,60.71
2019-05-14T09:23:42.251Z,59.30
2019-05-14T09:24:42.086Z,60.83
2019-05-14T09:25:46.961Z,59.78
2019-05-14T09:26:42.121Z,58.63
2019-05-14T09:27:42.132Z,59.01
2019-05-14T09:28:42.160Z,59.43
2019-05-14T09:29:42.211Z,60.00
2019-05-14T09:30:42.183Z,58.59
2019-05-14T09:31:42.227Z,58.79
2019-05-14T09:32:42.223Z,58.56
2019-05-14T09:33:42.310Z,59.27
2019-05-14T09:34:42.304Z,60.29
2019-05-14T09:35:42.280Z,59.75
2019-05-14T09:36:42.292Z,60.32
2019-05-14T09:37:42.313Z,59.75
2019-05-14T09:38:42.796Z,58.15
2019-05-14T09:39:42.344Z,58.72
2019-05-14T09:40:42.368Z,57.06
2019-05-14T09:41:42.379Z,57.42
2019-05-14T09:42:42.400Z,56.87
2019-05-14T09:43:42.420Z,56.49
2019-05-14T09:44:42.569Z,56.49
2019-05-14T09:45:42.454Z,56.77
2019-05-14T09:46:42.494Z,57.19
2019-05-14T09:47:42.486Z,56.87
2019-05-14T09:48:42.500Z,55.88
2019-05-14T09:49:42.518Z,55.51
2019-05-14T09:50:42.545Z,55.41
2019-05-14T09:51:42.554Z,55.44
2019-05-14T09:52:42.589Z,56.32
2019-05-14T09:53:42.603Z,56.13
2019-05-14T09:54:44.183Z,56.04
2019-05-14T09:55:42.751Z,55.65
2019-05-14T09:56:42.683Z,55.65
2019-05-14T09:57:42.661Z,56.39
2019-05-14T09:58:42.678Z,57.35
2019-05-14T09:59:42.695Z,55.91
2019-05-14T10:00:42.720Z,55.22
2019-05-14T10:01:42.745Z,56.49
2019-05-14T10:02:42.758Z,56.32
2019-05-14T10:03:42.775Z,55.08
2019-05-14T10:04:42.796Z,54.60
2019-05-14T10:05:42.875Z,56.42
2019-05-14T10:06:42.833Z,56.04
2019-05-14T10:07:42.840Z,55.69
2019-05-14T10:08:42.857Z,56.94
2019-05-14T10:09:42.879Z,57.73
2019-05-14T10:10:42.914Z,56.61
2019-05-14T10:11:42.923Z,56.90
2019-05-14T10:12:52.416Z,56.77
2019-05-14T10:13:42.957Z,55.05
2019-05-14T10:14:42.973Z,54.03
2019-05-14T10:15:42.989Z,55.08
2019-05-14T10:16:43.006Z,54.03
2019-05-14T10:17:43.019Z,53.74
2019-05-14T10:18:43.035Z,54.03
2019-05-14T10:19:43.068Z,54.03
2019-05-14T10:20:45.894Z,54.70
2019-05-14T10:21:43.097Z,55.27
2019-05-14T10:22:43.117Z,56.20
2019-05-14T10:23:43.131Z,56.10
2019-05-14T10:24:43.264Z,56.20
2019-05-14T10:25:43.162Z,55.18
2019-05-14T10:26:43.203Z,56.04
2019-05-14T10:27:43.195Z,56.07
2019-05-14T10:28:43.604Z,56.35
2019-05-14T10:29:43.235Z,55.62
2019-05-14T10:30:43.251Z,54.11
2019-05-14T10:31:43.268Z,54.01
2019-05-14T10:32:43.326Z,53.63
2019-05-14T10:33:43.307Z,52.22
2019-05-14T10:34:43.326Z,52.14
2019-05-14T10:35:43.339Z,52.60
2019-05-14T10:36:43.361Z,51.32
2019-05-14T10:37:43.384Z,52.28
2019-05-14T10:38:43.396Z,52.45
2019-05-14T10:39:43.418Z,52.45
2019-05-14T10:40:43.432Z,53.34
2019-05-14T10:41:43.452Z,54.52
2019-05-14T10:42:43.485Z,52.57
2019-05-14T10:43:43.495Z,52.89
2019-05-14T10:44:43.516Z,52.98
2019-05-14T10:45:43.526Z,51.47
2019-05-14T10:46:43.551Z,49.84
2019-05-14T10:47:43.561Z,49.07
2019-05-14T10:48:43.580Z,49.26
2019-05-14T10:49:43.601Z,48.79
2019-05-14T10:50:56.116Z,48.21
2019-05-14T10:51:43.639Z,49.15
2019-05-14T10:52:43.667Z,49.52
2019-05-14T10:53:43.697Z,49.88
2019-05-14T10:54:55.460Z,51.01
2019-05-14T10:55:43.716Z,52.14
2019-05-14T10:56:43.739Z,52.74
2019-05-14T10:57:43.765Z,52.20
2019-05-14T10:58:43.767Z,54.12
2019-05-14T10:59:43.787Z,54.96
2019-05-14T11:00:43.814Z,55.08
2019-05-14T11:01:43.820Z,54.70
2019-05-14T11:02:43.840Z,53.36
2019-05-14T11:03:43.886Z,54.12
2019-05-14T11:04:43.876Z,55.01
2019-05-14T11:05:43.901Z,54.32
2019-05-14T11:06:43.922Z,54.05
2019-05-14T11:07:43.932Z,52.74
2019-05-14T11:08:43.949Z,53.60
2019-05-14T11:09:43.972Z,52.12
2019-05-14T11:10:43.989Z,51.32
2019-05-14T11:11:44.005Z,52.23
2019-05-14T11:12:44.025Z,52.87
2019-05-14T11:13:44.046Z,53.64
2019-05-14T11:14:44.073Z,54.82
2019-05-14T11:15:44.084Z,54.94
2019-05-14T11:16:44.103Z,53.50
2019-05-14T11:17:44.122Z,51.75
2019-05-14T11:18:44.138Z,53.79
2019-05-14T11:19:44.153Z,52.55
2019-05-14T11:20:44.169Z,52.45
2019-05-14T11:21:44.197Z,52.91
2019-05-14T11:22:44.317Z,54.66
2019-05-14T11:23:44.229Z,52.71
2019-05-14T11:24:44.250Z,52.78
2019-05-14T11:25:44.266Z,54.03
2019-05-14T11:26:44.299Z,53.83
2019-05-14T11:27:44.302Z,53.96
2019-05-14T11:28:44.335Z,52.69
2019-05-14T11:29:44.348Z,53.91
2019-05-14T11:30:44.430Z,54.96
2019-05-14T11:31:44.378Z,55.53
2019-05-14T11:32:44.392Z,54.67
2019-05-14T11:33:44.414Z,55.46
2019-05-14T11:34:44.432Z,53.86
2019-05-14T11:35:44.444Z,52.74
2019-05-14T11:36:44.466Z,51.87
2019-05-14T11:37:44.617Z,51.30
2019-05-14T11:38:44.513Z,52.45
2019-05-14T11:39:44.519Z,51.97
2019-05-14T11:40:44.578Z,52.36
2019-05-14T11:41:44.552Z,52.55
2019-05-14T11:42:44.576Z,52.55
2019-05-14T11:43:44.603Z,52.04
2019-05-14T11:44:44.608Z,52.11
2019-05-14T11:45:44.632Z,52.42
2019-05-14T11:46:52.210Z,52.55
2019-05-14T11:47:44.669Z,52.36
2019-05-14T11:48:44.686Z,51.87
2019-05-14T11:49:44.702Z,51.30
2019-05-14T11:50:44.721Z,51.20
2019-05-14T11:52:00.703Z,50.68
2019-05-14T11:52:44.756Z,52.60
2019-05-14T11:53:44.774Z,52.19
2019-05-14T11:54:44.791Z,52.57
2019-05-14T11:55:44.810Z,51.25
2019-05-14T11:56:44.827Z,48.66
2019-05-14T11:57:44.849Z,47.22
2019-05-14T11:58:44.868Z,46.96
2019-05-14T11:59:44.884Z,47.39
2019-05-14T12:00:44.904Z,48.64
2019-05-14T12:01:44.920Z,49.88
2019-05-14T12:02:44.944Z,50.17
2019-05-14T12:03:44.963Z,49.98
2019-05-14T12:04:44.981Z,51.16
2019-05-14T12:05:44.998Z,50.58
2019-05-14T12:06:45.019Z,49.88
2019-05-14T12:07:45.055Z,49.41
2019-05-14T12:08:45.055Z,49.88
2019-05-14T12:09:45.072Z,50.10
2019-05-14T12:10:45.089Z,49.72
2019-05-14T12:11:45.113Z,49.12
2019-05-14T12:12:45.129Z,48.18
2019-05-14T12:13:45.148Z,48.11
2019-05-14T12:14:45.177Z,47.44
2019-05-14T12:15:45.318Z,46.96
2019-05-14T12:16:45.206Z,46.77
2019-05-14T12:17:45.224Z,47.80
2019-05-14T12:18:45.242Z,47.71
2019-05-14T12:19:45.257Z,48.09
2019-05-14T12:20:45.306Z,47.99
2019-05-14T12:21:58.901Z,49.19
2019-05-14T12:22:45.317Z,49.19
2019-05-14T12:23:45.381Z,49.00
2019-05-14T12:24:45.358Z,48.52
2019-05-14T12:25:45.372Z,47.97
2019-05-14T12:26:45.397Z,47.39
2019-05-14T12:27:45.411Z,47.97
2019-05-14T12:28:45.428Z,49.31
2019-05-14T12:29:45.453Z,49.41
2019-05-14T12:30:45.465Z,49.15
2019-05-14T12:31:45.500Z,46.94
2019-05-14T12:32:45.563Z,47.41
2019-05-14T12:33:45.574Z,46.62
2019-05-14T12:34:45.542Z,46.24
2019-05-14T12:35:45.563Z,47.03
2019-05-14T12:36:45.579Z,46.36
2019-05-14T12:37:45.598Z,46.94
2019-05-14T12:38:45.625Z,46.91
2019-05-14T12:39:45.633Z,47.01
2019-05-14T12:40:45.657Z,46.79
2019-05-14T12:41:45.671Z,47.66
2019-05-14T12:42:45.694Z,47.85
2019-05-14T12:43:45.709Z,48.97
2019-05-14T12:44:45.731Z,48.40
2019-05-14T12:45:45.747Z,47.85
2019-05-14T12:46:45.767Z,47.68
2019-05-14T12:47:45.797Z,48.95
2019-05-14T12:48:45.808Z,48.09
2019-05-14T12:49:48.165Z,47.41
2019-05-14T12:50:48.601Z,47.68
2019-05-14T12:51:45.861Z,49.10
2019-05-14T12:52:48.268Z,49.65